Time;durP1;ratioP1;P1;durP2;ratioP2;P2;SDS_P1;SDS_P2;PMS_P1;PMS_P2;Temp;Humidity;BMP_temperature;BMP_pressure;BME280_temperature;BME280_humidity;BME280_pressure;Samples;Min_cycle;Max_cycle;Signal;HPM_P1;HPM_P2
2022/04/24 00:02:23;;;;;;;6.78;5.43;;;12.60;82.30;;;;;;5071714;28;20024;-72
2022/04/24 00:04:49;;;;;;;9.88;5.82;;;12.60;82.70;;;;;;5071513;28;20032;-72
2022/04/24 00:07:15;;;;;;;8.23;6.25;;;12.60;83.10;;;;;;5054011;28;20020;-71
2022/04/24 00:09:41;;;;;;;6.78;5.80;;;12.50;83.60;;;;;;5072062;28;20041;-72
2022/04/24 00:12:07;;;;;;;7.53;5.85;;;12.50;84.10;;;;;;5073147;28;20361;-72
2022/04/24 00:14:33;;;;;;;7.22;5.85;;;12.50;84.70;;;;;;5072397;28;20101;-72
2022/04/24 00:16:59;;;;;;;9.43;6.60;;;12.50;85.10;;;;;;5072130;28;20460;-73
2022/04/24 00:19:24;;;;;;;8.32;6.30;;;12.50;85.50;;;;;;5057110;28;99049;-73
2022/04/24 00:21:50;;;;;;;8.88;6.35;;;12.40;85.90;;;;;;5071369;28;20029;-73
2022/04/24 00:24:16;;;;;;;7.15;6.18;;;12.40;86.70;;;;;;5075410;28;20368;-73
2022/04/24 00:26:41;;;;;;;8.00;6.95;;;12.40;87.30;;;;;;5057388;28;20460;-72
2022/04/24 00:29:07;;;;;;;9.13;6.75;;;12.30;88.10;;;;;;5075456;28;20017;-72
2022/04/24 00:31:33;;;;;;;8.52;6.82;;;12.30;88.80;;;;;;5073278;28;20388;-73
2022/04/24 00:33:58;;;;;;;7.93;6.60;;;12.30;89.50;;;;;;5073640;28;20054;-72
2022/04/24 00:36:24;;;;;;;10.02;7.22;;;12.20;90.00;;;;;;5073218;28;20025;-72
2022/04/24 00:38:50;;;;;;;13.23;7.70;;;12.20;90.40;;;;;;5072291;28;20032;-72
2022/04/24 00:41:15;;;;;;;9.38;7.18;;;12.20;90.60;;;;;;5072949;28;20028;-73
2022/04/24 00:43:41;;;;;;;9.20;7.10;;;12.10;91.10;;;;;;5072451;28;20033;-73
2022/04/24 00:46:14;;;;;;;8.75;7.13;;;12.10;91.50;;;;;;5054153;28;20040;-72
2022/04/24 00:48:41;;;;;;;10.25;7.68;;;12.10;91.60;;;;;;5072367;28;20016;-73
2022/04/24 00:51:08;;;;;;;8.43;7.50;;;12.10;91.70;;;;;;5072090;28;20056;-73
2022/04/24 00:53:35;;;;;;;10.18;7.68;;;12.10;91.80;;;;;;5072441;28;20021;-73
2022/04/24 00:56:01;;;;;;;10.05;7.68;;;12.10;92.00;;;;;;5072331;28;20024;-72
2022/04/24 00:58:27;;;;;;;10.60;7.35;;;12.00;92.30;;;;;;5071106;28;20055;-71
2022/04/24 01:00:52;;;;;;;10.70;7.55;;;12.00;92.50;;;;;;5052631;28;20073;-71
2022/04/24 01:03:18;;;;;;;9.45;7.75;;;12.00;92.80;;;;;;5052259;28;20049;-73
2022/04/24 01:05:44;;;;;;;11.32;7.82;;;12.00;92.90;;;;;;5052260;28;20068;-73
2022/04/24 01:08:09;;;;;;;10.32;7.95;;;12.00;93.00;;;;;;5051113;28;20108;-71
2022/04/24 01:10:39;;;;;;;13.10;7.40;;;12.00;93.10;;;;;;5052814;28;20014;-72
2022/04/24 01:13:05;;;;;;;10.65;8.38;;;12.00;93.50;;;;;;5052434;28;20052;-71
2022/04/24 01:15:31;;;;;;;9.77;8.00;;;11.90;93.60;;;;;;5051198;28;20033;-71
2022/04/24 01:17:57;;;;;;;8.88;7.75;;;11.90;93.90;;;;;;5055560;28;20044;-71
2022/04/24 01:20:23;;;;;;;10.02;8.05;;;11.90;94.10;;;;;;5055979;28;20045;-72
2022/04/24 01:22:48;;;;;;;11.30;8.18;;;11.80;94.30;;;;;;5055855;28;20083;-70
2022/04/24 01:25:14;;;;;;;11.00;8.45;;;11.80;94.70;;;;;;5055712;28;20021;-71
2022/04/24 01:27:40;;;;;;;11.90;8.77;;;11.80;94.80;;;;;;5055583;28;20408;-71
2022/04/24 01:30:06;;;;;;;11.15;8.60;;;11.80;95.00;;;;;;5055735;28;20017;-72
2022/04/24 01:32:33;;;;;;;10.88;8.20;;;11.80;95.20;;;;;;5055333;28;20071;-71
2022/04/24 01:34:59;;;;;;;11.15;8.38;;;11.70;95.40;;;;;;5055708;28;20112;-72
2022/04/24 01:37:25;;;;;;;10.82;8.27;;;11.70;95.70;;;;;;5055349;28;20052;-72
2022/04/24 01:39:53;;;;;;;14.88;8.70;;;11.70;96.10;;;;;;5056323;28;20040;-73
2022/04/24 01:42:18;;;;;;;10.38;8.05;;;11.70;96.60;;;;;;5055284;28;20040;-72
2022/04/24 01:44:44;;;;;;;11.65;8.98;;;11.70;97.00;;;;;;5053959;28;20033;-72
2022/04/24 01:47:10;;;;;;;12.55;9.18;;;11.60;97.40;;;;;;5054845;28;20389;-72
2022/04/24 01:49:35;;;;;;;12.85;9.82;;;11.60;97.90;;;;;;5054988;28;20507;-72
2022/04/24 01:52:01;;;;;;;15.73;9.80;;;11.50;98.30;;;;;;5054713;28;20025;-72
2022/04/24 01:54:27;;;;;;;15.13;10.40;;;11.50;98.90;;;;;;5054584;28;20025;-72
2022/04/24 01:56:52;;;;;;;15.38;10.02;;;11.50;99.40;;;;;;5054417;28;20060;-72
2022/04/24 01:59:18;;;;;;;13.45;10.38;;;11.40;99.90;;;;;;5054586;28;20454;-73
2022/04/24 02:01:44;;;;;;;15.52;11.52;;;11.40;99.90;;;;;;5054428;28;20017;-73
2022/04/24 02:04:09;;;;;;;14.00;11.05;;;11.40;99.90;;;;;;5054990;28;20115;-71
2022/04/24 02:06:35;;;;;;;16.13;11.93;;;11.30;99.90;;;;;;5054685;28;20060;-72
2022/04/24 02:09:00;;;;;;;16.50;12.27;;;11.30;99.90;;;;;;5053720;28;20037;-71
2022/04/24 02:11:26;;;;;;;19.48;12.27;;;11.30;99.90;;;;;;5054584;28;20055;-71
2022/04/24 02:13:52;;;;;;;20.13;12.10;;;11.20;99.90;;;;;;5054174;28;20099;-72
2022/04/24 02:16:17;;;;;;;16.65;12.20;;;11.20;99.90;;;;;;5054443;28;20115;-71
2022/04/24 02:18:43;;;;;;;17.00;12.85;;;11.20;99.90;;;;;;5054295;28;20044;-71
2022/04/24 02:21:10;;;;;;;19.13;12.52;;;11.20;99.90;;;;;;5054894;28;20021;-71
2022/04/24 02:23:36;;;;;;;19.75;13.43;;;11.20;99.90;;;;;;5054330;28;20021;-72
2022/04/24 02:26:01;;;;;;;19.20;13.73;;;11.20;99.90;;;;;;5054453;28;20054;-72
2022/04/24 02:28:27;;;;;;;17.80;12.88;;;11.20;99.90;;;;;;5051755;28;20120;-72
2022/04/24 02:30:52;;;;;;;22.73;13.85;;;11.10;99.90;;;;;;5054494;28;20116;-71
2022/04/24 02:33:18;;;;;;;17.98;13.48;;;11.10;99.90;;;;;;5054758;28;20052;-72
2022/04/24 02:35:44;;;;;;;18.63;13.32;;;11.10;99.90;;;;;;5054364;28;20032;-72
2022/04/24 02:38:09;;;;;;;20.00;14.00;;;11.00;99.90;;;;;;5054040;28;20017;-73
2022/04/24 02:40:35;;;;;;;18.60;14.20;;;11.00;99.90;;;;;;5054197;28;20028;-72
2022/04/24 02:43:00;;;;;;;21.02;14.30;;;11.00;99.90;;;;;;5054212;28;20515;-72
2022/04/24 02:45:26;;;;;;;22.17;14.38;;;11.00;99.90;;;;;;5036148;28;20029;-73
2022/04/24 02:47:51;;;;;;;19.95;13.60;;;10.90;99.90;;;;;;5054389;28;20392;-72
2022/04/24 02:50:17;;;;;;;19.02;13.85;;;10.90;99.90;;;;;;5054475;28;20431;-72
2022/04/24 02:52:56;;;;;;;19.15;14.07;;;10.90;99.90;;;;;;5054558;28;20364;-72
2022/04/24 02:55:23;;;;;;;19.70;13.82;;;10.90;99.90;;;;;;5053880;28;20029;-72
2022/04/24 02:57:49;;;;;;;19.35;13.45;;;10.90;99.90;;;;;;5053708;28;20029;-73
2022/04/24 03:00:25;;;;;;;19.40;14.45;;;10.90;99.90;;;;;;5053747;28;20048;-73
2022/04/24 03:02:52;;;;;;;20.42;14.73;;;10.90;99.90;;;;;;5054381;28;20067;-73
2022/04/24 03:05:20;;;;;;;22.10;14.70;;;10.90;99.90;;;;;;5052882;28;20312;-73
2022/04/24 03:07:46;;;;;;;20.92;14.30;;;10.90;99.90;;;;;;5053411;28;20029;-72
2022/04/24 03:10:13;;;;;;;21.73;14.52;;;10.80;99.90;;;;;;5055009;28;20388;-73
2022/04/24 03:12:41;;;;;;;21.27;14.25;;;10.80;99.90;;;;;;5053627;28;20025;-73
2022/04/24 03:15:08;;;;;;;20.13;13.90;;;10.80;99.90;;;;;;5053907;28;20029;-72
2022/04/24 03:17:34;;;;;;;23.42;13.88;;;10.80;99.90;;;;;;5053680;28;20104;-73
2022/04/24 03:20:01;;;;;;;18.58;13.75;;;10.70;99.90;;;;;;5053187;28;20124;-72
2022/04/24 03:22:27;;;;;;;19.38;13.75;;;10.70;99.90;;;;;;5054081;28;20089;-73
2022/04/24 03:24:53;;;;;;;21.67;14.35;;;10.70;99.90;;;;;;5053874;28;20102;-73
2022/04/24 03:27:19;;;;;;;20.65;13.45;;;10.70;99.90;;;;;;5054183;28;20029;-73
2022/04/24 03:29:44;;;;;;;18.80;13.50;;;10.70;99.90;;;;;;5053357;28;20033;-74
2022/04/24 03:32:10;;;;;;;21.02;13.90;;;10.70;99.90;;;;;;5053551;28;20025;-72
2022/04/24 03:34:37;;;;;;;18.50;13.15;;;10.60;99.90;;;;;;5053596;28;20053;-72
2022/04/24 03:37:03;;;;;;;22.52;14.00;;;10.60;99.90;;;;;;5054685;28;20035;-72
2022/04/24 03:39:29;;;;;;;20.48;12.77;;;10.60;99.90;;;;;;5055286;28;20032;-72
2022/04/24 03:41:54;;;;;;;19.02;12.88;;;10.60;99.90;;;;;;5054282;28;20018;-74
2022/04/24 03:44:20;;;;;;;18.40;12.90;;;10.60;99.90;;;;;;5053167;28;20029;-73
2022/04/24 03:46:45;;;;;;;16.95;13.00;;;10.50;99.90;;;;;;5053763;28;20017;-72
2022/04/24 03:49:11;;;;;;;18.70;12.88;;;10.50;99.90;;;;;;5053769;28;20487;-73
2022/04/24 03:51:36;;;;;;;18.88;12.35;;;10.50;99.90;;;;;;5054437;28;20108;-73
2022/04/24 03:54:02;;;;;;;20.38;12.43;;;10.50;99.90;;;;;;5054725;28;20032;-74
2022/04/24 03:56:31;;;;;;;17.27;12.43;;;10.40;99.90;;;;;;5054921;28;20025;-74
2022/04/24 03:59:00;;;;;;;17.30;12.60;;;10.40;99.90;;;;;;5054695;28;20112;-74
2022/04/24 04:01:25;;;;;;;20.17;13.18;;;10.40;99.90;;;;;;5054713;28;20055;-73
2022/04/24 04:03:51;;;;;;;16.83;12.50;;;10.40;99.90;;;;;;5053282;28;20029;-73
2022/04/24 04:06:17;;;;;;;17.58;12.00;;;10.40;99.90;;;;;;5054176;28;20111;-74
2022/04/24 04:08:43;;;;;;;19.55;12.07;;;10.30;99.90;;;;;;5054334;28;20427;-74
2022/04/24 04:11:08;;;;;;;18.70;12.30;;;10.30;99.90;;;;;;5054402;28;20025;-73
2022/04/24 04:13:34;;;;;;;17.75;12.02;;;10.30;99.90;;;;;;5054066;28;20178;-73
2022/04/24 04:16:00;;;;;;;15.75;11.80;;;10.30;99.90;;;;;;5053951;28;20049;-72
2022/04/24 04:18:26;;;;;;;18.02;11.82;;;10.20;99.90;;;;;;5053730;28;20053;-73
2022/04/24 04:20:51;;;;;;;17.70;11.82;;;10.20;99.90;;;;;;5054042;28;20441;-74
2022/04/24 04:23:17;;;;;;;21.45;12.05;;;10.20;99.90;;;;;;5053778;28;20040;-73
2022/04/24 04:25:43;;;;;;;16.08;11.93;;;10.20;99.90;;;;;;5053310;28;20028;-73
2022/04/24 04:28:08;;;;;;;17.65;11.85;;;10.20;99.90;;;;;;5053870;28;20029;-73
2022/04/24 04:30:34;;;;;;;14.73;11.20;;;10.20;99.90;;;;;;5053470;28;20024;-74
2022/04/24 04:33:00;;;;;;;17.63;11.15;;;10.10;99.90;;;;;;5054223;28;20067;-73
2022/04/24 04:35:25;;;;;;;15.02;11.38;;;10.10;99.90;;;;;;5053679;28;20476;-74
2022/04/24 04:37:51;;;;;;;16.98;11.82;;;10.10;99.90;;;;;;5054398;28;20377;-73
2022/04/24 04:40:20;;;;;;;17.58;11.63;;;10.10;99.90;;;;;;5054922;28;20033;-73
2022/04/24 04:42:47;;;;;;;15.57;11.35;;;10.10;99.90;;;;;;5054128;28;20059;-73
2022/04/24 04:45:13;;;;;;;15.98;11.15;;;10.10;99.90;;;;;;5053998;28;20021;-72
2022/04/24 04:47:39;;;;;;;16.27;11.57;;;10.10;99.90;;;;;;5054178;28;20037;-73
2022/04/24 04:50:05;;;;;;;19.77;11.55;;;10.10;99.90;;;;;;5054348;28;20108;-72
2022/04/24 04:52:30;;;;;;;19.23;11.48;;;10.10;99.90;;;;;;5057924;28;20064;-72
2022/04/24 04:54:56;;;;;;;17.88;10.90;;;10.00;99.90;;;;;;5058284;28;20658;-72
2022/04/24 04:57:21;;;;;;;13.35;10.05;;;10.00;99.90;;;;;;5057991;28;20391;-72
2022/04/24 04:59:47;;;;;;;16.90;10.48;;;10.00;99.90;;;;;;5058149;28;20033;-74
2022/04/24 05:02:13;;;;;;;14.82;10.70;;;10.00;99.90;;;;;;5057275;28;20037;-73
2022/04/24 05:04:39;;;;;;;14.77;10.30;;;10.00;99.90;;;;;;5057059;28;20025;-73
2022/04/24 05:07:04;;;;;;;18.08;11.65;;;10.00;99.90;;;;;;5057335;28;20028;-72
2022/04/24 05:09:30;;;;;;;16.15;10.63;;;10.00;99.90;;;;;;5057248;28;20391;-72
2022/04/24 05:11:55;;;;;;;16.05;10.30;;;9.90;99.90;;;;;;5057570;28;20021;-72
2022/04/24 05:14:21;;;;;;;16.83;11.05;;;10.00;99.90;;;;;;5056812;28;20099;-73
2022/04/24 05:16:46;;;;;;;14.90;10.45;;;10.00;99.90;;;;;;5056702;28;20045;-72
2022/04/24 05:19:12;;;;;;;16.40;10.13;;;10.00;99.90;;;;;;5057283;28;20424;-72
2022/04/24 05:21:37;;;;;;;13.75;9.70;;;10.00;99.90;;;;;;5057062;28;20120;-72
2022/04/24 05:24:03;;;;;;;14.30;10.35;;;10.00;99.90;;;;;;5055243;28;20472;-72
2022/04/24 05:26:29;;;;;;;14.20;9.98;;;10.00;99.90;;;;;;5038395;28;20519;-73
2022/04/24 05:28:54;;;;;;;13.20;9.57;;;10.00;99.90;;;;;;5056268;28;20477;-73
2022/04/24 05:31:20;;;;;;;13.48;10.18;;;10.00;99.90;;;;;;5056763;28;20163;-71
2022/04/24 05:33:46;;;;;;;15.52;9.50;;;10.10;99.90;;;;;;5056660;28;20044;-73
2022/04/24 05:36:12;;;;;;;13.98;9.70;;;10.10;99.90;;;;;;5038802;28;20029;-73
2022/04/24 05:38:38;;;;;;;13.63;9.27;;;10.10;99.90;;;;;;5039207;28;20561;-73
2022/04/24 05:41:04;;;;;;;16.02;10.13;;;10.10;99.90;;;;;;5056357;28;20036;-72
2022/04/24 05:43:30;;;;;;;12.00;9.35;;;10.10;99.90;;;;;;5056328;28;20017;-72
2022/04/24 05:45:56;;;;;;;12.65;9.25;;;10.20;99.90;;;;;;5057345;28;20055;-72
2022/04/24 05:48:22;;;;;;;12.88;8.93;;;10.20;99.90;;;;;;5056435;28;20040;-72
2022/04/24 05:50:48;;;;;;;13.60;9.13;;;10.20;99.90;;;;;;5055354;28;20152;-72
2022/04/24 05:53:13;;;;;;;12.82;9.38;;;10.20;99.90;;;;;;5038138;28;20048;-71
2022/04/24 05:55:39;;;;;;;13.70;9.18;;;10.30;99.90;;;;;;5058052;28;20033;-72
2022/04/24 05:58:05;;;;;;;14.55;9.45;;;10.30;99.90;;;;;;5066589;28;20414;-71
2022/04/24 06:00:30;;;;;;;11.90;8.70;;;10.30;99.90;;;;;;5074856;28;20062;-73
2022/04/24 06:02:56;;;;;;;13.85;9.60;;;10.40;99.90;;;;;;5071018;28;20013;-74
2022/04/24 06:05:22;;;;;;;12.55;9.25;;;10.40;99.90;;;;;;5073572;28;20039;-73
2022/04/24 06:07:48;;;;;;;12.55;8.63;;;10.40;99.90;;;;;;5072943;28;20013;-73
2022/04/24 06:10:14;;;;;;;12.10;8.07;;;10.50;99.90;;;;;;5074453;28;20099;-72
2022/04/24 06:12:56;;;;;;;10.65;8.40;;;10.50;99.90;;;;;;5074215;28;20040;-72
2022/04/24 06:15:25;;;;;;;13.90;8.68;;;10.50;99.90;;;;;;5074536;28;20033;-72
2022/04/24 06:17:52;;;;;;;12.77;8.95;;;10.50;99.90;;;;;;5067848;28;20032;-73
2022/04/24 06:20:20;;;;;;;11.43;8.35;;;10.60;99.90;;;;;;5073968;28;20101;-72
2022/04/24 06:22:50;;;;;;;12.75;8.73;;;10.60;99.90;;;;;;5071991;28;20060;-74
2022/04/24 06:25:17;;;;;;;12.32;8.68;;;10.60;99.90;;;;;;5069184;28;20021;-71
2022/04/24 06:27:43;;;;;;;13.23;8.77;;;10.60;99.90;;;;;;5068921;28;20021;-74
2022/04/24 06:30:11;;;;;;;14.23;8.70;;;10.70;99.90;;;;;;5065968;28;20024;-75
2022/04/24 06:32:39;;;;;;;14.90;8.52;;;10.70;99.90;;;;;;5070577;28;20023;-72
2022/04/24 06:35:05;;;;;;;12.98;9.23;;;10.70;99.90;;;;;;5070879;28;20025;-72
2022/04/24 06:37:31;;;;;;;13.73;8.77;;;10.80;99.90;;;;;;5040339;28;20035;-72
2022/04/24 06:39:57;;;;;;;12.95;8.13;;;10.80;99.90;;;;;;5059192;28;20073;-74
2022/04/24 06:42:22;;;;;;;12.82;8.63;;;10.90;99.90;;;;;;5058379;28;20060;-74
2022/04/24 06:44:48;;;;;;;11.52;8.15;;;10.90;99.90;;;;;;5057503;28;20067;-72
2022/04/24 06:47:13;;;;;;;12.00;7.93;;;10.90;99.90;;;;;;5055840;28;20021;-73
2022/04/24 06:49:39;;;;;;;11.02;8.35;;;11.00;99.90;;;;;;5056582;28;20020;-71
2022/04/24 06:52:05;;;;;;;10.52;8.13;;;11.00;99.90;;;;;;5055840;28;20028;-72
2022/04/24 06:54:30;;;;;;;13.25;8.77;;;11.10;99.90;;;;;;5037815;28;20029;-73
2022/04/24 06:57:01;;;;;;;10.65;8.20;;;11.10;99.90;;;;;;5056759;28;20085;-72
2022/04/24 06:59:27;;;;;;;15.05;8.43;;;11.20;99.90;;;;;;5055375;28;20264;-72
2022/04/24 07:01:53;;;;;;;10.43;8.15;;;11.20;99.90;;;;;;5037806;28;20033;-72
2022/04/24 07:04:18;;;;;;;10.90;8.23;;;11.30;99.90;;;;;;5055290;28;20029;-72
2022/04/24 07:06:44;;;;;;;16.58;8.48;;;11.40;99.90;;;;;;5055406;28;20419;-72
2022/04/24 07:09:10;;;;;;;11.30;7.78;;;11.40;99.90;;;;;;5055101;28;20021;-71
2022/04/24 07:11:36;;;;;;;11.88;8.75;;;11.50;99.90;;;;;;5059016;28;20028;-72
2022/04/24 07:14:01;;;;;;;13.07;8.18;;;11.60;99.90;;;;;;5055762;28;20047;-72
2022/04/24 07:16:27;;;;;;;10.52;7.88;;;11.70;99.90;;;;;;5068384;28;20040;-72
2022/04/24 07:18:53;;;;;;;11.13;8.20;;;11.70;99.90;;;;;;5058109;28;20105;-72
2022/04/24 07:21:18;;;;;;;12.85;8.18;;;11.80;99.90;;;;;;5077011;28;20060;-73
2022/04/24 07:23:44;;;;;;;12.52;8.30;;;11.90;99.90;;;;;;5074811;28;20020;-73
2022/04/24 07:26:09;;;;;;;10.60;8.35;;;12.00;99.90;;;;;;5057080;28;20498;-73
2022/04/24 07:28:36;;;;;;;9.80;7.78;;;12.10;99.90;;;;;;5075424;28;20531;-73
2022/04/24 07:31:01;;;;;;;11.85;8.18;;;12.20;99.90;;;;;;5076206;28;20042;-73
2022/04/24 07:33:27;;;;;;;11.70;7.78;;;12.30;99.90;;;;;;5074930;28;20024;-73
2022/04/24 07:35:53;;;;;;;10.20;7.93;;;12.40;99.90;;;;;;5077931;28;20043;-73
2022/04/24 07:38:18;;;;;;;10.57;7.82;;;12.50;99.90;;;;;;5076469;28;20028;-73
2022/04/24 07:40:44;;;;;;;13.68;8.00;;;12.60;99.90;;;;;;5077767;28;20029;-72
2022/04/24 07:43:11;;;;;;;10.40;7.78;;;12.70;99.90;;;;;;5073019;28;20308;-72
2022/04/24 07:45:47;;;;;;;13.77;8.02;;;12.80;99.90;;;;;;5073785;28;20028;-73
2022/04/24 07:48:14;;;;;;;11.77;7.95;;;12.90;99.90;;;;;;5083042;28;20034;-76
2022/04/24 07:50:45;;;;;;;12.65;8.02;;;13.00;99.90;;;;;;5074939;28;20025;-76
2022/04/24 07:53:11;;;;;;;11.00;8.23;;;13.10;99.90;;;;;;5083492;28;20028;-74
2022/04/24 07:55:40;;;;;;;11.73;8.15;;;13.20;99.90;;;;;;5058823;28;20033;-75
2022/04/24 07:58:06;;;;;;;9.95;8.05;;;13.30;99.90;;;;;;5090050;28;20322;-75
2022/04/24 08:00:33;;;;;;;14.10;8.18;;;13.50;99.90;;;;;;5086427;28;20076;-74
2022/04/24 08:03:01;;;;;;;11.85;8.52;;;13.60;99.90;;;;;;5073566;28;20040;-76
2022/04/24 08:05:33;;;;;;;10.45;7.90;;;13.70;99.90;;;;;;5089226;28;20033;-73
2022/04/24 08:08:01;;;;;;;10.15;7.63;;;13.90;99.10;;;;;;5086961;28;20032;-76
2022/04/24 08:10:30;;;;;;;10.55;7.47;;;14.00;98.40;;;;;;5086825;28;20027;-75
2022/04/24 08:12:55;;;;;;;11.13;7.63;;;14.00;97.70;;;;;;5090507;28;20062;-73
2022/04/24 08:15:21;;;;;;;11.60;7.95;;;14.10;96.70;;;;;;5091208;28;20131;-73
2022/04/24 08:17:47;;;;;;;9.50;7.78;;;14.20;96.60;;;;;;5071513;28;20009;-75
2022/04/24 08:20:15;;;;;;;11.23;8.05;;;14.20;96.60;;;;;;5071020;28;20079;-74
2022/04/24 08:22:46;;;;;;;10.25;8.07;;;14.30;95.90;;;;;;5070994;28;20025;-74
2022/04/24 08:25:16;;;;;;;10.15;7.78;;;14.40;95.70;;;;;;5052675;28;20029;-74
2022/04/24 08:27:41;;;;;;;9.35;7.63;;;14.50;96.00;;;;;;5073946;28;20021;-74
2022/04/24 08:30:11;;;;;;;8.70;7.38;;;14.60;95.20;;;;;;5071394;28;20021;-74
2022/04/24 08:32:38;;;;;;;11.25;8.27;;;14.60;95.20;;;;;;5071089;28;20059;-75
2022/04/24 08:35:05;;;;;;;10.77;7.75;;;14.60;95.10;;;;;;5069591;28;20029;-75
2022/04/24 08:37:31;;;;;;;11.52;8.10;;;14.60;94.70;;;;;;5088767;28;20417;-74
2022/04/24 08:39:57;;;;;;;12.30;7.50;;;14.70;94.80;;;;;;5092858;28;20021;-75
2022/04/24 08:42:22;;;;;;;10.75;7.68;;;14.70;94.50;;;;;;5082930;28;20435;-79
2022/04/24 08:44:49;;;;;;;13.05;7.57;;;14.80;94.20;;;;;;5074021;28;20028;-78
2022/04/24 08:47:16;;;;;;;11.13;8.07;;;14.90;94.60;;;;;;5059880;28;20042;-80
2022/04/24 08:49:42;;;;;;;9.73;7.70;;;15.10;93.80;;;;;;5071529;28;20404;-80
2022/04/24 08:52:10;;;;;;;11.30;7.78;;;15.20;93.00;;;;;;5080746;28;20040;-76
2022/04/24 08:54:41;;;;;;;12.52;7.93;;;15.30;92.60;;;;;;5081401;28;20028;-75
2022/04/24 08:57:08;;;;;;;9.57;7.65;;;15.40;92.00;;;;;;5086947;28;20469;-75
2022/04/24 08:59:35;;;;;;;9.90;7.50;;;15.50;91.40;;;;;;5084425;28;20039;-76
2022/04/24 09:02:00;;;;;;;9.05;7.55;;;15.50;91.10;;;;;;5083827;28;20017;-75
2022/04/24 09:04:33;;;;;;;12.73;8.30;;;15.60;90.80;;;;;;5086855;28;20048;-74
2022/04/24 09:07:00;;;;;;;10.30;7.75;;;15.70;90.60;;;;;;5091535;28;20028;-75
2022/04/24 09:09:27;;;;;;;10.60;8.00;;;15.80;89.20;;;;;;5091332;28;20337;-75
2022/04/24 09:11:52;;;;;;;10.95;7.53;;;15.80;88.60;;;;;;5092602;28;20059;-74
2022/04/24 09:14:19;;;;;;;11.05;7.90;;;15.90;89.80;;;;;;5091494;28;20025;-73
2022/04/24 09:16:49;;;;;;;11.10;8.07;;;16.00;90.30;;;;;;5090119;28;20043;-74
2022/04/24 09:19:25;;;;;;;9.18;7.70;;;16.10;90.70;;;;;;5087193;28;20036;-75
2022/04/24 09:22:09;;;;;;;10.82;8.07;;;16.20;90.10;;;;;;5089137;28;20024;-75
2022/04/24 09:24:41;;;;;;;10.50;7.65;;;16.30;89.20;;;;;;5090773;28;20046;-77
2022/04/24 09:27:08;;;;;;;12.27;8.40;;;16.20;87.00;;;;;;5087342;28;20033;-75
2022/04/24 09:29:34;;;;;;;10.00;8.10;;;16.20;86.90;;;;;;5089767;28;20024;-75
2022/04/24 09:31:59;;;;;;;11.50;7.85;;;16.30;87.90;;;;;;5087285;28;20031;-75
2022/04/24 09:34:33;;;;;;;12.77;8.27;;;16.20;88.40;;;;;;5082631;28;20029;-75
2022/04/24 09:37:01;;;;;;;11.98;8.32;;;16.20;88.40;;;;;;5080926;28;20040;-76
2022/04/24 09:39:28;;;;;;;13.40;8.15;;;16.20;89.20;;;;;;5084097;28;20076;-75
2022/04/24 09:42:03;;;;;;;12.05;8.38;;;16.20;87.70;;;;;;5084421;28;20039;-75
2022/04/24 09:44:38;;;;;;;11.35;8.18;;;16.20;88.20;;;;;;5085373;28;20056;-75
2022/04/24 09:47:05;;;;;;;9.43;7.55;;;16.30;87.10;;;;;;5085793;28;20441;-75
2022/04/24 09:49:36;;;;;;;10.15;7.53;;;16.50;87.30;;;;;;5082256;28;20025;-74
2022/04/24 09:52:04;;;;;;;10.18;7.72;;;16.70;85.80;;;;;;5079867;28;20028;-73
2022/04/24 09:54:31;;;;;;;11.40;8.00;;;16.80;84.90;;;;;;5062362;28;20049;-74
2022/04/24 09:56:57;;;;;;;8.60;7.57;;;16.90;83.60;;;;;;5083361;28;20032;-72
2022/04/24 09:59:25;;;;;;;9.15;7.57;;;16.90;80.70;;;;;;5085426;28;20020;-74
2022/04/24 10:01:50;;;;;;;10.57;7.72;;;16.90;79.80;;;;;;5085816;28;20041;-74
2022/04/24 10:04:17;;;;;;;11.95;8.07;;;17.00;80.00;;;;;;5086681;28;20061;-74
2022/04/24 10:06:44;;;;;;;11.07;8.10;;;17.10;80.50;;;;;;5088216;28;20409;-75
2022/04/24 10:09:11;;;;;;;11.75;7.72;;;17.10;80.00;;;;;;5088472;28;20045;-74
2022/04/24 10:11:37;;;;;;;11.85;7.90;;;17.10;80.10;;;;;;5088476;28;20043;-75
2022/04/24 10:14:07;;;;;;;10.85;7.60;;;17.20;79.00;;;;;;5069333;28;20032;-72
2022/04/24 10:17:11;;;;;;;9.60;7.55;;;17.30;78.00;;;;;;5076199;28;20396;-73
2022/04/24 10:20:02;;;;;;;20.15;7.82;;;17.40;75.90;;;;;;5004274;28;20078;-72
2022/04/24 10:22:39;;;;;;;12.63;7.70;;;17.60;76.20;;;;;;5007580;28;20022;-73
2022/04/24 10:25:06;;;;;;;13.43;7.47;;;17.60;76.40;;;;;;5010591;28;20018;-74
2022/04/24 10:27:45;;;;;;;12.85;7.97;;;17.60;76.50;;;;;;4994829;28;20030;-74
2022/04/24 10:30:33;;;;;;;12.70;8.30;;;17.60;77.10;;;;;;5008479;28;20129;-73
2022/04/24 10:33:20;;;;;;;13.63;8.02;;;17.80;76.00;;;;;;5005257;28;20057;-74
2022/04/24 10:35:53;;;;;;;9.93;7.95;;;17.80;75.20;;;;;;5005751;28;20039;-72
2022/04/24 10:38:23;;;;;;;11.63;7.93;;;17.80;75.20;;;;;;5009705;28;20061;-75
2022/04/24 10:41:18;;;;;;;11.98;8.30;;;17.70;73.50;;;;;;5015007;28;20026;-75
2022/04/24 10:43:48;;;;;;;11.63;8.33;;;17.70;73.60;;;;;;5012455;28;20041;-74
2022/04/24 10:46:28;;;;;;;11.88;8.15;;;17.70;74.50;;;;;;5013626;28;20046;-74
2022/04/24 10:49:05;;;;;;;9.88;8.02;;;17.80;74.20;;;;;;5011642;28;20065;-76
2022/04/24 10:51:32;;;;;;;10.40;7.70;;;17.80;73.60;;;;;;5013607;28;20030;-75
2022/04/24 10:53:58;;;;;;;12.18;7.68;;;17.80;73.20;;;;;;5013954;28;20022;-75
2022/04/24 10:56:29;;;;;;;14.50;8.00;;;17.80;71.60;;;;;;5050823;28;20052;-73
2022/04/24 10:59:09;;;;;;;10.57;8.27;;;17.70;71.80;;;;;;5069698;28;20025;-73
2022/04/24 11:01:36;;;;;;;11.77;9.23;;;17.80;72.90;;;;;;5069404;28;20021;-73
2022/04/24 11:04:10;;;;;;;10.40;8.68;;;17.90;74.10;;;;;;5051762;28;20029;-74
2022/04/24 11:06:36;;;;;;;11.80;7.95;;;18.00;73.70;;;;;;5068463;28;20025;-73
2022/04/24 11:09:10;;;;;;;15.02;7.93;;;18.00;71.30;;;;;;5067463;28;20044;-74
2022/04/24 11:11:52;;;;;;;14.38;8.40;;;18.00;69.80;;;;;;5072616;28;20032;-75
2022/04/24 11:14:20;;;;;;;10.80;8.20;;;17.90;70.80;;;;;;5074019;28;20013;-74
2022/04/24 11:16:54;;;;;;;11.02;7.95;;;18.00;70.40;;;;;;5069710;28;20028;-76
2022/04/24 11:19:27;;;;;;;11.00;7.90;;;18.00;72.00;;;;;;5096319;28;20306;-76
2022/04/24 11:21:58;;;;;;;11.10;8.10;;;18.10;71.10;;;;;;5094263;28;20036;-76
2022/04/24 11:24:28;;;;;;;11.25;8.07;;;18.10;69.50;;;;;;5093846;28;20036;-74
2022/04/24 11:26:55;;;;;;;8.98;6.78;;;18.20;68.00;;;;;;5074177;28;20042;-73
2022/04/24 11:29:21;;;;;;;14.02;7.80;;;18.30;66.70;;;;;;5089356;28;20028;-73
2022/04/24 11:31:52;;;;;;;13.73;8.27;;;18.60;67.80;;;;;;5090092;28;20043;-75
2022/04/24 11:34:19;;;;;;;12.82;7.70;;;18.70;65.20;;;;;;5089474;28;20035;-74
2022/04/24 11:36:46;;;;;;;12.73;7.65;;;18.70;65.30;;;;;;5075421;28;20062;-75
2022/04/24 11:39:12;;;;;;;10.35;7.80;;;18.70;64.70;;;;;;5094510;28;20028;-73
2022/04/24 11:41:39;;;;;;;10.93;8.10;;;18.80;64.90;;;;;;5093366;28;20019;-72
2022/04/24 11:52:24;;;;;;;11.15;7.75;;;18.80;63.10;;;;;;5081861;28;20035;-77
2022/04/24 11:54:51;;;;;;;11.77;8.00;;;18.90;62.80;;;;;;5063369;28;20459;-77
2022/04/24 11:57:18;;;;;;;11.77;7.47;;;18.90;62.80;;;;;;5077333;28;20020;-79
2022/04/24 11:59:55;;;;;;;10.77;7.55;;;18.90;61.50;;;;;;5072385;28;20028;-77
2022/04/24 12:02:27;;;;;;;20.20;8.18;;;18.80;62.30;;;;;;5069861;28;20040;-71
2022/04/24 12:04:54;;;;;;;12.23;8.15;;;18.80;63.50;;;;;;5058428;28;20033;-74
2022/04/24 12:07:21;;;;;;;11.18;7.47;;;18.80;64.40;;;;;;5060490;28;20020;-75
2022/04/24 12:09:59;;;;;;;12.15;7.18;;;18.90;63.50;;;;;;5079452;28;20052;-74
2022/04/24 12:12:25;;;;;;;12.73;7.47;;;18.90;63.10;;;;;;5077524;28;20479;-76
2022/04/24 12:14:54;;;;;;;9.98;7.60;;;18.80;63.30;;;;;;5054200;28;20021;-73
2022/04/24 12:17:22;;;;;;;9.27;7.22;;;18.80;62.60;;;;;;5077735;28;20174;-75
2022/04/24 12:19:53;;;;;;;9.98;6.63;;;18.80;62.40;;;;;;5073476;28;20071;-74
2022/04/24 12:22:30;;;;;;;13.52;6.65;;;18.80;61.90;;;;;;5067850;28;20485;-74
2022/04/24 12:25:18;;;;;;;8.32;6.25;;;18.90;60.40;;;;;;5074997;28;20027;-75
2022/04/24 12:27:52;;;;;;;11.75;6.20;;;18.90;61.00;;;;;;5074506;28;20042;-75
2022/04/24 12:30:18;;;;;;;10.18;6.03;;;18.90;60.40;;;;;;5059452;28;20328;-74
2022/04/24 12:32:44;;;;;;;13.30;5.70;;;18.90;59.90;;;;;;5076685;28;20115;-75
2022/04/24 12:35:29;;;;;;;8.45;5.20;;;19.00;58.50;;;;;;5074753;28;20066;-74
2022/04/24 12:37:55;;;;;;;8.82;5.10;;;19.10;57.60;;;;;;5055430;28;20036;-75
2022/04/24 12:40:21;;;;;;;8.30;5.45;;;19.20;57.40;;;;;;5061170;28;20473;-74
2022/04/24 12:42:56;;;;;;;8.02;4.80;;;19.20;56.80;;;;;;5056532;28;20028;-75
2022/04/24 12:45:24;;;;;;;7.43;4.75;;;19.20;56.60;;;;;;5058002;28;20578;-74
2022/04/24 12:47:50;;;;;;;8.85;4.35;;;19.30;56.50;;;;;;5071162;28;20388;-73